Terminal Aerodrome Forecast
Issued by NWS

Home | Current Version | Previous Version | Text Only | Print | Product List | Glossary On
Versions: 1 2 3 4 5 6 7 8 9 10 11 12 13 14 15 16 17 18 19
000
FTUS41 KAKQ 282340
TAFPHF
TAF
KPHF 282340Z 2900/2924 06007KT 3SM BR OVC004
     FM290300 05005KT 2SM BR OVC002
     FM291400 04004KT 4SM BR OVC005
     FM291800 05006KT P6SM OVC012=

USA.gov is the U.S. government's official web portal to all federal, state and local government web resources and services.